createdAt,value
2022-09-01T00:04:24.236Z,17.2
2022-09-01T00:14:30.431Z,17.1
2022-09-01T00:24:24.919Z,17.1
2022-09-01T00:34:25.698Z,16.9
2022-09-01T00:44:25.912Z,16.8
2022-09-01T00:54:26.936Z,16.6
2022-09-01T01:04:27.626Z,16.4
2022-09-01T01:14:27.946Z,16.2
2022-09-01T01:24:28.387Z,16
2022-09-01T01:34:28.635Z,15.8
2022-09-01T01:44:28.938Z,15.6
2022-09-01T01:54:29.263Z,15.5
2022-09-01T02:04:29.665Z,15.3
2022-09-01T02:14:29.925Z,15.2
2022-09-01T02:24:30.228Z,15
2022-09-01T02:34:31.278Z,14.9
2022-09-01T02:44:31.688Z,14.8
2022-09-01T03:34:34.466Z,14.3
2022-09-01T03:44:35.089Z,14.3
2022-09-01T04:54:40.557Z,14.1
2022-09-01T05:14:41.251Z,13.9
2022-09-01T05:24:42.170Z,14
2022-09-01T05:54:43.974Z,14.3
2022-09-01T06:14:45.535Z,14.7
2022-09-01T06:24:48.318Z,14.9
2022-09-01T06:34:46.362Z,15.2
2022-09-01T06:44:46.643Z,15.6
2022-09-01T06:54:46.830Z,15.9
2022-09-01T07:04:47.231Z,16.3
2022-09-01T07:25:09.814Z,17.8
2022-09-01T07:34:48.997Z,17.9
2022-09-01T07:44:48.817Z,18.3
2022-09-01T07:54:49.013Z,18.6
2022-09-01T08:04:49.739Z,19
2022-09-01T08:14:50.039Z,19.2
2022-09-01T08:17:50.427Z,19.1
2022-09-01T08:34:59.220Z,19.8
2022-09-01T08:44:59.357Z,20.1
2022-09-01T08:55:00.305Z,20.3
2022-09-01T09:05:01.297Z,20.5
2022-09-01T09:15:01.308Z,21
2022-09-01T09:35:02.285Z,21.5
2022-09-01T09:45:03.281Z,21.7
2022-09-01T09:55:04.809Z,21.5
2022-09-01T10:15:06.954Z,22
2022-09-01T10:25:05.908Z,22.2
2022-09-01T10:35:06.020Z,22.5
2022-09-01T10:55:07.419Z,22.8
2022-09-01T11:05:08.114Z,23
2022-09-01T11:15:08.467Z,22.6
2022-09-01T11:25:12.392Z,23.1
2022-09-01T11:35:09.499Z,23.2
2022-09-01T11:45:09.994Z,23.2
2022-09-01T11:55:10.630Z,23.3
2022-09-01T12:05:11.069Z,23.4
2022-09-01T12:15:11.507Z,23
2022-09-01T12:25:12.575Z,23.8
2022-09-01T12:35:13.142Z,23.8
2022-09-01T12:45:13.962Z,24
2022-09-01T12:55:47.214Z,23.9
2022-09-01T13:05:15.255Z,24.4
2022-09-01T13:15:16.308Z,24.4
2022-09-01T13:35:17.354Z,24.6
2022-09-01T13:45:18.285Z,24.6
2022-09-01T13:55:19.193Z,24.5
2022-09-01T14:05:19.293Z,24.7
2022-09-01T14:15:22.668Z,24.8
2022-09-01T14:25:19.704Z,24.7
2022-09-01T14:35:20.538Z,24.6
2022-09-01T14:45:20.949Z,24.4
2022-09-01T14:55:21.649Z,24.1
2022-09-01T15:05:22.118Z,24.5
2022-09-01T15:15:22.761Z,24.2
2022-09-01T15:25:23.127Z,24.1
2022-09-01T15:35:24.016Z,24.1
2022-09-01T15:45:24.904Z,24.1
2022-09-01T15:55:25.075Z,24.1
2022-09-01T16:05:26.133Z,24.1
2022-09-01T16:15:26.965Z,24
2022-09-01T16:25:27.455Z,23.9
2022-09-01T16:35:28.500Z,23.8
2022-09-01T16:45:29.094Z,23.6
2022-09-01T16:55:29.336Z,23.6
2022-09-01T17:05:29.515Z,23.2
2022-09-01T17:15:30.465Z,23
2022-09-01T17:25:31.386Z,22.8
2022-09-01T17:45:33.050Z,22.4
2022-09-01T17:55:33.840Z,22.3
2022-09-01T18:15:35.247Z,21.7
2022-09-01T18:25:35.661Z,21.5
2022-09-01T18:35:36.684Z,21.3
2022-09-01T18:45:36.765Z,21.2
2022-09-01T18:55:37.276Z,21
2022-09-01T19:05:37.449Z,20.8
2022-09-01T19:15:38.531Z,20.7
2022-09-01T19:25:39.578Z,20.5
2022-09-01T19:35:40.551Z,20.3
2022-09-01T19:45:41.301Z,20.2
2022-09-01T19:55:41.988Z,20.1
2022-09-01T20:15:43.726Z,19.7
2022-09-01T20:25:44.302Z,19.5
2022-09-01T20:35:45.321Z,19.4
2022-09-01T20:45:46.369Z,19.3
2022-09-01T20:55:47.374Z,19.1
2022-09-01T21:15:48.732Z,18.7
2022-09-01T21:35:49.497Z,18.4
2022-09-01T21:45:50.044Z,18.2
2022-09-01T21:55:50.292Z,18.1
2022-09-01T22:05:50.711Z,18
2022-09-01T22:15:51.051Z,17.8
2022-09-01T22:25:51.232Z,17.6
2022-09-01T22:35:52.176Z,17.5
2022-09-01T22:45:52.782Z,17.5
2022-09-01T22:55:53.064Z,17.3
2022-09-01T23:05:53.677Z,17.2
2022-09-01T23:15:54.118Z,16.9
2022-09-01T23:25:54.224Z,16.7
2022-09-01T23:35:54.415Z,16.5
2022-09-01T23:45:55.057Z,16.4
2022-09-01T23:55:55.273Z,16.2
